sensor_id;sensor_type;location;lat;lon;timestamp;pressure;altitude;pressure_sealevel;temperature;humidity
61488;BME280;47351;53.326;-6.298;2023-04-02T00:01:25;102099.94;;;8.48;85.98
61488;BME280;47351;53.326;-6.298;2023-04-02T00:04:26;102100.56;;;8.44;85.76
61488;BME280;47351;53.326;-6.298;2023-04-02T00:07:27;102106.48;;;8.42;85.75
61488;BME280;47351;53.326;-6.298;2023-04-02T00:10:38;102118.30;;;8.37;85.79
61488;BME280;47351;53.326;-6.298;2023-04-02T00:13:49;102126.70;;;8.34;85.88
61488;BME280;47351;53.326;-6.298;2023-04-02T00:16:41;102132.14;;;8.33;86.19
61488;BME280;47351;53.326;-6.298;2023-04-02T00:19:53;102129.75;;;8.31;86.12
61488;BME280;47351;53.326;-6.298;2023-04-02T00:22:51;102125.07;;;8.30;86.17
61488;BME280;47351;53.326;-6.298;2023-04-02T00:26:01;102131.86;;;8.29;86.18
61488;BME280;47351;53.326;-6.298;2023-04-02T00:29:15;102135.42;;;8.29;86.35
61488;BME280;47351;53.326;-6.298;2023-04-02T00:32:27;102135.12;;;8.31;86.46
61488;BME280;47351;53.326;-6.298;2023-04-02T00:35:30;102128.10;;;8.32;86.66
61488;BME280;47351;53.326;-6.298;2023-04-02T00:38:35;102122.98;;;8.37;87.07
61488;BME280;47351;53.326;-6.298;2023-04-02T00:41:34;102133.88;;;8.42;87.05
61488;BME280;47351;53.326;-6.298;2023-04-02T00:44:46;102146.44;;;8.45;86.91
61488;BME280;47351;53.326;-6.298;2023-04-02T00:47:38;102155.34;;;8.48;86.83
61488;BME280;47351;53.326;-6.298;2023-04-02T00:50:47;102161.52;;;8.51;87.11
61488;BME280;47351;53.326;-6.298;2023-04-02T00:53:48;102171.25;;;8.54;87.20
61488;BME280;47351;53.326;-6.298;2023-04-02T00:56:43;102179.77;;;8.55;87.00
61488;BME280;47351;53.326;-6.298;2023-04-02T00:59:52;102177.70;;;8.53;86.79
61488;BME280;47351;53.326;-6.298;2023-04-02T01:03:27;102164.27;;;8.50;86.89
61488;BME280;47351;53.326;-6.298;2023-04-02T01:06:30;102162.89;;;8.47;86.80
61488;BME280;47351;53.326;-6.298;2023-04-02T01:09:30;102157.77;;;8.43;86.88
61488;BME280;47351;53.326;-6.298;2023-04-02T01:12:32;102156.45;;;8.42;86.96
61488;BME280;47351;53.326;-6.298;2023-04-02T01:15:46;102168.10;;;8.41;87.16
61488;BME280;47351;53.326;-6.298;2023-04-02T01:19:00;102179.14;;;8.41;87.26
61488;BME280;47351;53.326;-6.298;2023-04-02T01:22:05;102171.49;;;8.43;87.63
61488;BME280;47351;53.326;-6.298;2023-04-02T01:25:19;102165.64;;;8.45;87.60
61488;BME280;47351;53.326;-6.298;2023-04-02T01:28:24;102173.37;;;8.44;87.34
61488;BME280;47351;53.326;-6.298;2023-04-02T01:31:20;102173.57;;;8.42;87.20
61488;BME280;47351;53.326;-6.298;2023-04-02T01:34:15;102172.86;;;8.39;87.34
61488;BME280;47351;53.326;-6.298;2023-04-02T01:37:30;102168.92;;;8.36;87.39
61488;BME280;47351;53.326;-6.298;2023-04-02T01:40:34;102167.44;;;8.34;87.47
61488;BME280;47351;53.326;-6.298;2023-04-02T01:43:44;102180.08;;;8.32;87.50
61488;BME280;47351;53.326;-6.298;2023-04-02T01:46:48;102181.45;;;8.27;87.35
61488;BME280;47351;53.326;-6.298;2023-04-02T01:49:48;102183.58;;;8.25;87.35
61488;BME280;47351;53.326;-6.298;2023-04-02T01:52:59;102181.88;;;8.24;87.50
61488;BME280;47351;53.326;-6.298;2023-04-02T01:56:10;102187.27;;;8.23;87.59
61488;BME280;47351;53.326;-6.298;2023-04-02T01:59:06;102196.13;;;8.23;87.81
61488;BME280;47351;53.326;-6.298;2023-04-02T02:02:00;102209.74;;;8.25;87.96
61488;BME280;47351;53.326;-6.298;2023-04-02T02:04:52;102220.53;;;8.25;87.80
61488;BME280;47351;53.326;-6.298;2023-04-02T02:08:03;102221.01;;;8.27;87.86
61488;BME280;47351;53.326;-6.298;2023-04-02T02:11:06;102223.41;;;8.28;87.93
61488;BME280;47351;53.326;-6.298;2023-04-02T02:14:00;102229.08;;;8.28;88.07
61488;BME280;47351;53.326;-6.298;2023-04-02T02:16:58;102231.80;;;8.27;87.95
61488;BME280;47351;53.326;-6.298;2023-04-02T02:20:01;102237.77;;;8.26;87.93
61488;BME280;47351;53.326;-6.298;2023-04-02T02:22:57;102243.23;;;8.24;87.87
61488;BME280;47351;53.326;-6.298;2023-04-02T02:26:09;102247.19;;;8.21;87.96
61488;BME280;47351;53.326;-6.298;2023-04-02T02:29:06;102254.48;;;8.18;87.80
61488;BME280;47351;53.326;-6.298;2023-04-02T02:32:21;102267.02;;;8.17;87.90
61488;BME280;47351;53.326;-6.298;2023-04-02T02:35:19;102274.83;;;8.17;88.06
61488;BME280;47351;53.326;-6.298;2023-04-02T02:41:40;102272.66;;;8.18;88.34
61488;BME280;47351;53.326;-6.298;2023-04-02T02:44:52;102284.06;;;8.18;88.27
61488;BME280;47351;53.326;-6.298;2023-04-02T02:47:44;102285.59;;;8.18;88.50
61488;BME280;47351;53.326;-6.298;2023-04-02T02:50:41;102279.66;;;8.19;88.44
61488;BME280;47351;53.326;-6.298;2023-04-02T02:53:47;102286.74;;;8.20;88.58
61488;BME280;47351;53.326;-6.298;2023-04-02T02:56:51;102292.27;;;8.19;88.60
61488;BME280;47351;53.326;-6.298;2023-04-02T03:00:04;102292.55;;;8.18;88.56
61488;BME280;47351;53.326;-6.298;2023-04-02T03:03:04;102292.16;;;8.16;88.69
61488;BME280;47351;53.326;-6.298;2023-04-02T03:06:15;102290.96;;;8.12;88.82
61488;BME280;47351;53.326;-6.298;2023-04-02T03:09:32;102297.84;;;8.08;88.79
61488;BME280;47351;53.326;-6.298;2023-04-02T03:12:46;102306.41;;;8.05;89.07
61488;BME280;47351;53.326;-6.298;2023-04-02T03:15:59;102304.58;;;8.00;89.14
61488;BME280;47351;53.326;-6.298;2023-04-02T03:19:06;102304.38;;;7.96;89.33
61488;BME280;47351;53.326;-6.298;2023-04-02T03:22:14;102313.23;;;7.94;89.50
61488;BME280;47351;53.326;-6.298;2023-04-02T03:25:29;102317.36;;;7.90;89.49
61488;BME280;47351;53.326;-6.298;2023-04-02T03:28:28;102317.67;;;7.88;89.61
61488;BME280;47351;53.326;-6.298;2023-04-02T03:31:24;102319.11;;;7.87;89.84
61488;BME280;47351;53.326;-6.298;2023-04-02T03:34:30;102325.20;;;7.87;89.64
61488;BME280;47351;53.326;-6.298;2023-04-02T03:37:37;102330.19;;;7.87;89.94
61488;BME280;47351;53.326;-6.298;2023-04-02T03:40:52;102335.93;;;7.89;90.10
61488;BME280;47351;53.326;-6.298;2023-04-02T03:43:49;102339.08;;;7.89;90.17
61488;BME280;47351;53.326;-6.298;2023-04-02T03:46:56;102342.81;;;7.92;90.30
61488;BME280;47351;53.326;-6.298;2023-04-02T03:49:52;102343.86;;;7.93;90.04
61488;BME280;47351;53.326;-6.298;2023-04-02T03:53:03;102341.14;;;7.90;89.94
61488;BME280;47351;53.326;-6.298;2023-04-02T03:56:17;102345.11;;;7.89;90.04
61488;BME280;47351;53.326;-6.298;2023-04-02T03:59:23;102352.89;;;7.88;89.87
61488;BME280;47351;53.326;-6.298;2023-04-02T04:02:39;102352.33;;;7.83;89.75
61488;BME280;47351;53.326;-6.298;2023-04-02T04:05:51;102351.34;;;7.79;89.68
61488;BME280;47351;53.326;-6.298;2023-04-02T04:08:47;102348.64;;;7.74;89.60
61488;BME280;47351;53.326;-6.298;2023-04-02T04:11:53;102348.66;;;7.71;89.73
61488;BME280;47351;53.326;-6.298;2023-04-02T04:15:06;102347.85;;;7.67;89.65
61488;BME280;47351;53.326;-6.298;2023-04-02T04:18:20;102346.98;;;7.64;89.81
61488;BME280;47351;53.326;-6.298;2023-04-02T04:21:37;102346.61;;;7.61;89.81
61488;BME280;47351;53.326;-6.298;2023-04-02T04:24:53;102350.59;;;7.60;89.95
61488;BME280;47351;53.326;-6.298;2023-04-02T04:28:00;102351.27;;;7.61;90.28
61488;BME280;47351;53.326;-6.298;2023-04-02T04:31:12;102353.90;;;7.61;90.23
61488;BME280;47351;53.326;-6.298;2023-04-02T04:34:20;102356.84;;;7.62;90.43
61488;BME280;47351;53.326;-6.298;2023-04-02T04:37:27;102360.06;;;7.65;90.67
61488;BME280;47351;53.326;-6.298;2023-04-02T04:40:43;102361.02;;;7.67;90.61
61488;BME280;47351;53.326;-6.298;2023-04-02T04:44:00;102363.30;;;7.67;90.62
61488;BME280;47351;53.326;-6.298;2023-04-02T04:47:09;102370.81;;;7.66;90.74
61488;BME280;47351;53.326;-6.298;2023-04-02T04:50:23;102374.20;;;7.66;90.91
61488;BME280;47351;53.326;-6.298;2023-04-02T04:53:27;102374.30;;;7.64;90.75
61488;BME280;47351;53.326;-6.298;2023-04-02T04:56:32;102372.84;;;7.59;90.50
61488;BME280;47351;53.326;-6.298;2023-04-02T04:59:48;102371.11;;;7.54;90.51
61488;BME280;47351;53.326;-6.298;2023-04-02T05:02:59;102377.89;;;7.47;90.55
61488;BME280;47351;53.326;-6.298;2023-04-02T05:05:54;102383.48;;;7.43;90.77
61488;BME280;47351;53.326;-6.298;2023-04-02T05:09:11;102383.48;;;7.40;90.96
61488;BME280;47351;53.326;-6.298;2023-04-02T05:12:18;102392.62;;;7.39;91.37
61488;BME280;47351;53.326;-6.298;2023-04-02T05:15:26;102402.90;;;7.39;91.45
61488;BME280;47351;53.326;-6.298;2023-04-02T05:18:30;102405.73;;;7.39;91.48
61488;BME280;47351;53.326;-6.298;2023-04-02T05:21:31;102407.27;;;7.40;91.61
61488;BME280;47351;53.326;-6.298;2023-04-02T05:24:49;102409.89;;;7.41;91.80
61488;BME280;47351;53.326;-6.298;2023-04-02T05:28:02;102414.02;;;7.44;92.03
61488;BME280;47351;53.326;-6.298;2023-04-02T05:31:15;102421.36;;;7.48;92.24
61488;BME280;47351;53.326;-6.298;2023-04-02T05:34:24;102429.64;;;7.52;92.26
61488;BME280;47351;53.326;-6.298;2023-04-02T05:37:26;102425.96;;;7.57;92.48
61488;BME280;47351;53.326;-6.298;2023-04-02T05:40:40;102422.20;;;7.60;92.51
61488;BME280;47351;53.326;-6.298;2023-04-02T05:43:55;102428.63;;;7.62;92.44
61488;BME280;47351;53.326;-6.298;2023-04-02T05:47:00;102436.41;;;7.63;92.13
61488;BME280;47351;53.326;-6.298;2023-04-02T05:50:17;102440.85;;;7.60;91.85
61488;BME280;47351;53.326;-6.298;2023-04-02T05:53:13;102446.36;;;7.58;91.67
61488;BME280;47351;53.326;-6.298;2023-04-02T05:56:16;102451.02;;;7.54;91.54
61488;BME280;47351;53.326;-6.298;2023-04-02T05:59:20;102456.50;;;7.49;91.44
61488;BME280;47351;53.326;-6.298;2023-04-02T06:02:33;102451.63;;;7.44;91.57
61488;BME280;47351;53.326;-6.298;2023-04-02T06:05:40;102455.19;;;7.44;91.92
61488;BME280;47351;53.326;-6.298;2023-04-02T06:08:54;102458.77;;;7.43;91.77
61488;BME280;47351;53.326;-6.298;2023-04-02T06:12:14;102470.73;;;7.42;91.87
61488;BME280;47351;53.326;-6.298;2023-04-02T06:15:11;102475.13;;;7.43;92.19
61488;BME280;47351;53.326;-6.298;2023-04-02T06:18:25;102483.55;;;7.46;92.42
61488;BME280;47351;53.326;-6.298;2023-04-02T06:21:30;102486.02;;;7.48;92.78
61488;BME280;47351;53.326;-6.298;2023-04-02T06:24:41;102484.21;;;7.52;92.92
61488;BME280;47351;53.326;-6.298;2023-04-02T06:27:34;102490.09;;;7.57;93.41
61488;BME280;47351;53.326;-6.298;2023-04-02T06:30:31;102488.73;;;7.62;93.26
61488;BME280;47351;53.326;-6.298;2023-04-02T06:33:35;102498.61;;;7.66;93.44
61488;BME280;47351;53.326;-6.298;2023-04-02T06:36:40;102503.67;;;7.70;93.28
61488;BME280;47351;53.326;-6.298;2023-04-02T06:39:33;102506.30;;;7.74;93.20
61488;BME280;47351;53.326;-6.298;2023-04-02T06:42:28;102511.42;;;7.80;93.30
61488;BME280;47351;53.326;-6.298;2023-04-02T06:45:27;102516.10;;;7.87;93.23
61488;BME280;47351;53.326;-6.298;2023-04-02T06:48:42;102515.84;;;7.88;92.58
61488;BME280;47351;53.326;-6.298;2023-04-02T06:51:47;102521.55;;;7.88;92.39
61488;BME280;47351;53.326;-6.298;2023-04-02T06:55:01;102525.20;;;7.90;92.38
61488;BME280;47351;53.326;-6.298;2023-04-02T06:58:05;102528.19;;;7.90;92.08
61488;BME280;47351;53.326;-6.298;2023-04-02T07:01:04;102531.15;;;7.88;91.86
61488;BME280;47351;53.326;-6.298;2023-04-02T07:04:01;102534.80;;;7.89;92.13
61488;BME280;47351;53.326;-6.298;2023-04-02T07:07:00;102536.84;;;7.92;91.91
61488;BME280;47351;53.326;-6.298;2023-04-02T07:10:29;102545.04;;;7.94;91.83
61488;BME280;47351;53.326;-6.298;2023-04-02T07:13:39;102549.08;;;7.98;91.90
61488;BME280;47351;53.326;-6.298;2023-04-02T07:16:50;102551.41;;;8.00;91.94
61488;BME280;47351;53.326;-6.298;2023-04-02T07:20:00;102551.45;;;8.02;91.99
61488;BME280;47351;53.326;-6.298;2023-04-02T07:23:06;102554.74;;;8.06;92.43
61488;BME280;47351;53.326;-6.298;2023-04-02T07:26:12;102562.21;;;8.18;92.97
61488;BME280;47351;53.326;-6.298;2023-04-02T07:29:16;102566.96;;;8.29;92.77
61488;BME280;47351;53.326;-6.298;2023-04-02T07:32:15;102570.90;;;8.38;92.47
61488;BME280;47351;53.326;-6.298;2023-04-02T07:35:07;102573.20;;;8.49;92.77
61488;BME280;47351;53.326;-6.298;2023-04-02T07:37:58;102574.23;;;8.58;92.24
61488;BME280;47351;53.326;-6.298;2023-04-02T07:40:48;102572.41;;;8.64;91.91
61488;BME280;47351;53.326;-6.298;2023-04-02T07:43:59;102569.00;;;8.76;91.97
61488;BME280;47351;53.326;-6.298;2023-04-02T07:47:21;102574.19;;;8.86;91.87
61488;BME280;47351;53.326;-6.298;2023-04-02T07:50:35;102578.05;;;8.90;91.45
61488;BME280;47351;53.326;-6.298;2023-04-02T07:53:30;102581.27;;;8.95;91.32
61488;BME280;47351;53.326;-6.298;2023-04-02T07:56:35;102585.68;;;9.01;91.72
61488;BME280;47351;53.326;-6.298;2023-04-02T07:59:38;102586.26;;;9.00;91.05
61488;BME280;47351;53.326;-6.298;2023-04-02T08:02:36;102593.63;;;9.02;90.97
61488;BME280;47351;53.326;-6.298;2023-04-02T08:05:29;102597.09;;;9.09;90.99
61488;BME280;47351;53.326;-6.298;2023-04-02T08:08:33;102599.06;;;9.17;91.00
61488;BME280;47351;53.326;-6.298;2023-04-02T08:11:31;102603.95;;;9.26;91.21
61488;BME280;47351;53.326;-6.298;2023-04-02T08:14:37;102608.09;;;9.44;90.84
61488;BME280;47351;53.326;-6.298;2023-04-02T08:17:28;102606.26;;;9.62;90.66
61488;BME280;47351;53.326;-6.298;2023-04-02T08:20:34;102607.45;;;9.79;90.34
61488;BME280;47351;53.326;-6.298;2023-04-02T08:23:28;102614.46;;;9.94;89.85
61488;BME280;47351;53.326;-6.298;2023-04-02T08:26:28;102616.47;;;10.03;89.09
61488;BME280;47351;53.326;-6.298;2023-04-02T08:29:29;102613.14;;;10.17;89.08
61488;BME280;47351;53.326;-6.298;2023-04-02T08:32:30;102600.77;;;10.39;89.01
61488;BME280;47351;53.326;-6.298;2023-04-02T08:35:24;102586.77;;;10.57;88.29
61488;BME280;47351;53.326;-6.298;2023-04-02T08:38:19;102582.91;;;10.75;87.70
61488;BME280;47351;53.326;-6.298;2023-04-02T08:41:12;102581.63;;;11.00;87.24
61488;BME280;47351;53.326;-6.298;2023-04-02T08:44:12;102584.52;;;11.63;85.96
61488;BME280;47351;53.326;-6.298;2023-04-02T08:47:06;102590.65;;;11.99;85.54
61488;BME280;47351;53.326;-6.298;2023-04-02T08:50:00;102588.93;;;12.36;84.57
61488;BME280;47351;53.326;-6.298;2023-04-02T08:52:54;102590.30;;;12.98;83.66
61488;BME280;47351;53.326;-6.298;2023-04-02T08:55:45;102594.26;;;13.28;82.17
61488;BME280;47351;53.326;-6.298;2023-04-02T08:58:39;102596.73;;;13.37;80.55
61488;BME280;47351;53.326;-6.298;2023-04-02T09:01:34;102599.80;;;13.26;80.21
61488;BME280;47351;53.326;-6.298;2023-04-02T09:04:36;102604.05;;;13.16;80.17
61488;BME280;47351;53.326;-6.298;2023-04-02T09:07:32;102612.84;;;13.39;79.64
61488;BME280;47351;53.326;-6.298;2023-04-02T09:10:30;102615.27;;;13.97;78.73
61488;BME280;47351;53.326;-6.298;2023-04-02T09:13:26;102616.30;;;14.05;78.09
61488;BME280;47351;53.326;-6.298;2023-04-02T09:16:20;102616.23;;;14.03;78.14
61488;BME280;47351;53.326;-6.298;2023-04-02T09:19:15;102619.38;;;14.03;77.29
61488;BME280;47351;53.326;-6.298;2023-04-02T09:22:06;102617.64;;;13.69;76.82
61488;BME280;47351;53.326;-6.298;2023-04-02T09:24:58;102618.87;;;13.29;76.92
61488;BME280;47351;53.326;-6.298;2023-04-02T09:27:50;102619.61;;;12.97;77.50
61488;BME280;47351;53.326;-6.298;2023-04-02T09:30:45;102620.18;;;12.88;77.20
61488;BME280;47351;53.326;-6.298;2023-04-02T09:33:49;102619.19;;;13.00;77.17
61488;BME280;47351;53.326;-6.298;2023-04-02T09:36:45;102620.95;;;13.19;77.04
61488;BME280;47351;53.326;-6.298;2023-04-02T09:39:38;102622.11;;;13.30;76.78
61488;BME280;47351;53.326;-6.298;2023-04-02T09:42:31;102630.99;;;13.66;76.27
61488;BME280;47351;53.326;-6.298;2023-04-02T09:45:25;102630.69;;;15.27;73.35
61488;BME280;47351;53.326;-6.298;2023-04-02T09:48:23;102635.77;;;15.45;72.29
61488;BME280;47351;53.326;-6.298;2023-04-02T09:51:15;102640.27;;;15.21;71.72
61488;BME280;47351;53.326;-6.298;2023-04-02T09:54:11;102644.77;;;14.88;71.98
61488;BME280;47351;53.326;-6.298;2023-04-02T09:57:03;102649.79;;;14.52;72.25
61488;BME280;47351;53.326;-6.298;2023-04-02T10:00:08;102651.00;;;14.30;72.77
61488;BME280;47351;53.326;-6.298;2023-04-02T10:03:22;102650.76;;;14.04;72.80
61488;BME280;47351;53.326;-6.298;2023-04-02T10:06:14;102652.05;;;13.83;73.23
61488;BME280;47351;53.326;-6.298;2023-04-02T10:09:24;102654.15;;;13.66;73.17
61488;BME280;47351;53.326;-6.298;2023-04-02T10:12:22;102657.10;;;13.59;73.36
61488;BME280;47351;53.326;-6.298;2023-04-02T10:15:14;102659.48;;;13.71;73.30
61488;BME280;47351;53.326;-6.298;2023-04-02T10:18:09;102657.12;;;13.86;73.02
61488;BME280;47351;53.326;-6.298;2023-04-02T10:21:02;102657.48;;;13.86;72.15
61488;BME280;47351;53.326;-6.298;2023-04-02T10:23:53;102655.61;;;13.77;72.04
61488;BME280;47351;53.326;-6.298;2023-04-02T10:26:48;102658.17;;;13.76;72.46
61488;BME280;47351;53.326;-6.298;2023-04-02T10:32:50;102666.65;;;13.73;72.78
61488;BME280;47351;53.326;-6.298;2023-04-02T10:35:47;102666.06;;;13.70;72.59
61488;BME280;47351;53.326;-6.298;2023-04-02T10:38:44;102668.58;;;13.61;72.60
61488;BME280;47351;53.326;-6.298;2023-04-02T10:41:36;102669.06;;;13.43;72.06
61488;BME280;47351;53.326;-6.298;2023-04-02T10:44:42;102669.58;;;13.21;71.78
61488;BME280;47351;53.326;-6.298;2023-04-02T10:47:36;102669.69;;;13.18;72.20
61488;BME280;47351;53.326;-6.298;2023-04-02T10:50:32;102667.83;;;13.36;72.60
61488;BME280;47351;53.326;-6.298;2023-04-02T10:53:29;102667.31;;;13.82;72.07
61488;BME280;47351;53.326;-6.298;2023-04-02T10:56:25;102672.21;;;14.19;71.03
61488;BME280;47351;53.326;-6.298;2023-04-02T10:59:21;102671.33;;;14.33;70.68
61488;BME280;47351;53.326;-6.298;2023-04-02T11:02:27;102670.27;;;14.33;70.45
61488;BME280;47351;53.326;-6.298;2023-04-02T11:05:24;102668.28;;;14.21;70.33
61488;BME280;47351;53.326;-6.298;2023-04-02T11:08:21;102671.99;;;14.05;70.36
61488;BME280;47351;53.326;-6.298;2023-04-02T11:11:16;102672.14;;;13.79;70.10
61488;BME280;47351;53.326;-6.298;2023-04-02T11:14:09;102671.13;;;13.50;70.36
61488;BME280;47351;53.326;-6.298;2023-04-02T11:17:02;102669.85;;;13.27;70.70
61488;BME280;47351;53.326;-6.298;2023-04-02T11:19:52;102674.77;;;13.06;71.16
61488;BME280;47351;53.326;-6.298;2023-04-02T11:22:43;102676.02;;;12.87;71.43
61488;BME280;47351;53.326;-6.298;2023-04-02T11:25:35;102679.08;;;12.67;71.42
61488;BME280;47351;53.326;-6.298;2023-04-02T11:28:27;102675.60;;;12.50;71.73
61488;BME280;47351;53.326;-6.298;2023-04-02T11:31:20;102674.77;;;12.40;72.17
61488;BME280;47351;53.326;-6.298;2023-04-02T11:37:31;102673.53;;;12.44;72.82
61488;BME280;47351;53.326;-6.298;2023-04-02T11:43:48;102676.28;;;12.86;72.29
61488;BME280;47351;53.326;-6.298;2023-04-02T11:46:41;102675.39;;;13.20;72.01
61488;BME280;47351;53.326;-6.298;2023-04-02T11:49:33;102678.59;;;13.64;71.49
61488;BME280;47351;53.326;-6.298;2023-04-02T11:52:26;102679.80;;;14.29;69.97
61488;BME280;47351;53.326;-6.298;2023-04-02T11:55:29;102676.02;;;15.08;68.20
61488;BME280;47351;53.326;-6.298;2023-04-02T12:01:43;102670.28;;;16.88;63.49
61488;BME280;47351;53.326;-6.298;2023-04-02T12:04:56;102661.82;;;19.12;60.47
61488;BME280;47351;53.326;-6.298;2023-04-02T12:10:59;102659.11;;;20.36;55.46
61488;BME280;47351;53.326;-6.298;2023-04-02T12:13:51;102663.23;;;21.34;52.89
61488;BME280;47351;53.326;-6.298;2023-04-02T12:16:41;102665.05;;;21.43;52.46
61488;BME280;47351;53.326;-6.298;2023-04-02T12:19:31;102662.16;;;22.12;50.76
61488;BME280;47351;53.326;-6.298;2023-04-02T12:22:22;102657.86;;;22.36;49.22
61488;BME280;47351;53.326;-6.298;2023-04-02T12:25:20;102660.13;;;22.18;50.19
61488;BME280;47351;53.326;-6.298;2023-04-02T12:28:15;102660.91;;;21.73;49.81
61488;BME280;47351;53.326;-6.298;2023-04-02T12:31:12;102661.92;;;21.11;49.11
61488;BME280;47351;53.326;-6.298;2023-04-02T12:34:10;102667.63;;;20.42;50.16
61488;BME280;47351;53.326;-6.298;2023-04-02T12:37:03;102668.09;;;19.99;50.90
61488;BME280;47351;53.326;-6.298;2023-04-02T12:39:55;102669.64;;;19.80;50.81
61488;BME280;47351;53.326;-6.298;2023-04-02T12:42:46;102674.63;;;19.58;50.56
61488;BME280;47351;53.326;-6.298;2023-04-02T12:45:36;102680.24;;;19.20;49.85
61488;BME280;47351;53.326;-6.298;2023-04-02T12:48:27;102688.20;;;18.66;49.72
61488;BME280;47351;53.326;-6.298;2023-04-02T12:51:21;102687.21;;;18.25;51.05
61488;BME280;47351;53.326;-6.298;2023-04-02T12:54:15;102683.81;;;18.06;51.58
61488;BME280;47351;53.326;-6.298;2023-04-02T12:57:21;102678.92;;;18.13;51.95
61488;BME280;47351;53.326;-6.298;2023-04-02T13:00:32;102676.49;;;19.01;50.89
61488;BME280;47351;53.326;-6.298;2023-04-02T13:03:24;102670.28;;;21.09;47.82
61488;BME280;47351;53.326;-6.298;2023-04-02T13:06:20;102668.22;;;21.53;45.16
61488;BME280;47351;53.326;-6.298;2023-04-02T13:09:25;102669.33;;;21.95;44.93
61488;BME280;47351;53.326;-6.298;2023-04-02T13:12:30;102668.55;;;23.36;45.05
61488;BME280;47351;53.326;-6.298;2023-04-02T13:15:21;102665.77;;;25.02;42.68
61488;BME280;47351;53.326;-6.298;2023-04-02T13:18:19;102667.15;;;26.64;40.80
61488;BME280;47351;53.326;-6.298;2023-04-02T13:21:23;102670.65;;;26.78;39.07
61488;BME280;47351;53.326;-6.298;2023-04-02T13:24:16;102667.35;;;26.71;38.25
61488;BME280;47351;53.326;-6.298;2023-04-02T13:27:09;102658.55;;;27.43;37.83
61488;BME280;47351;53.326;-6.298;2023-04-02T13:30:07;102651.41;;;28.21;36.08
61488;BME280;47351;53.326;-6.298;2023-04-02T13:32:57;102651.16;;;28.64;34.69
61488;BME280;47351;53.326;-6.298;2023-04-02T13:35:48;102651.91;;;29.09;35.03
61488;BME280;47351;53.326;-6.298;2023-04-02T13:38:38;102650.41;;;29.45;33.29
61488;BME280;47351;53.326;-6.298;2023-04-02T13:41:29;102650.50;;;29.35;31.89
61488;BME280;47351;53.326;-6.298;2023-04-02T13:44:23;102650.73;;;29.10;32.37
61488;BME280;47351;53.326;-6.298;2023-04-02T13:47:13;102653.27;;;28.95;31.98
61488;BME280;47351;53.326;-6.298;2023-04-02T13:50:08;102655.16;;;28.83;31.76
61488;BME280;47351;53.326;-6.298;2023-04-02T13:53:07;102655.73;;;28.32;30.38
61488;BME280;47351;53.326;-6.298;2023-04-02T13:56:05;102656.53;;;27.87;31.67
61488;BME280;47351;53.326;-6.298;2023-04-02T13:58:56;102654.89;;;27.73;31.68
61488;BME280;47351;53.326;-6.298;2023-04-02T14:01:47;102660.88;;;27.59;31.86
61488;BME280;47351;53.326;-6.298;2023-04-02T14:04:39;102664.48;;;27.54;31.71
61488;BME280;47351;53.326;-6.298;2023-04-02T14:07:44;102667.63;;;27.31;31.87
61488;BME280;47351;53.326;-6.298;2023-04-02T14:10:50;102670.45;;;27.17;32.31
61488;BME280;47351;53.326;-6.298;2023-04-02T14:13:56;102669.55;;;27.10;32.94
61488;BME280;47351;53.326;-6.298;2023-04-02T14:16:54;102670.31;;;27.21;33.41
61488;BME280;47351;53.326;-6.298;2023-04-02T14:20:02;102671.60;;;26.99;32.81
61488;BME280;47351;53.326;-6.298;2023-04-02T14:23:00;102669.86;;;26.69;33.12
61488;BME280;47351;53.326;-6.298;2023-04-02T14:25:56;102662.85;;;26.25;33.26
61488;BME280;47351;53.326;-6.298;2023-04-02T14:28:51;102664.13;;;25.57;33.32
61488;BME280;47351;53.326;-6.298;2023-04-02T14:31:46;102663.17;;;24.85;33.99
61488;BME280;47351;53.326;-6.298;2023-04-02T14:34:41;102661.48;;;24.17;34.97
61488;BME280;47351;53.326;-6.298;2023-04-02T14:37:36;102665.05;;;23.61;35.55
61488;BME280;47351;53.326;-6.298;2023-04-02T14:40:33;102675.91;;;23.04;35.99
61488;BME280;47351;53.326;-6.298;2023-04-02T14:43:26;102676.14;;;22.56;36.83
61488;BME280;47351;53.326;-6.298;2023-04-02T14:46:19;102675.30;;;22.18;37.38
61488;BME280;47351;53.326;-6.298;2023-04-02T14:49:18;102673.72;;;21.92;37.48
61488;BME280;47351;53.326;-6.298;2023-04-02T14:52:11;102671.29;;;21.49;37.86
61488;BME280;47351;53.326;-6.298;2023-04-02T14:55:05;102669.16;;;21.14;38.78
61488;BME280;47351;53.326;-6.298;2023-04-02T14:58:02;102664.87;;;20.79;39.05
61488;BME280;47351;53.326;-6.298;2023-04-02T15:00:58;102661.77;;;20.37;39.25
61488;BME280;47351;53.326;-6.298;2023-04-02T15:03:53;102666.20;;;20.06;40.33
61488;BME280;47351;53.326;-6.298;2023-04-02T15:06:46;102667.27;;;19.79;40.63
61488;BME280;47351;53.326;-6.298;2023-04-02T15:09:39;102663.06;;;19.44;40.69
61488;BME280;47351;53.326;-6.298;2023-04-02T15:12:34;102666.17;;;19.08;41.33
61488;BME280;47351;53.326;-6.298;2023-04-02T15:15:29;102668.65;;;18.80;41.97
61488;BME280;47351;53.326;-6.298;2023-04-02T15:18:28;102666.05;;;18.56;42.09
61488;BME280;47351;53.326;-6.298;2023-04-02T15:21:27;102663.06;;;18.26;42.60
61488;BME280;47351;53.326;-6.298;2023-04-02T15:24:45;102664.59;;;17.93;43.13
61488;BME280;47351;53.326;-6.298;2023-04-02T15:27:49;102661.17;;;17.64;43.73
61488;BME280;47351;53.326;-6.298;2023-04-02T15:30:43;102661.28;;;17.38;44.23
61488;BME280;47351;53.326;-6.298;2023-04-02T15:33:46;102659.34;;;17.06;44.49
61488;BME280;47351;53.326;-6.298;2023-04-02T15:36:59;102658.52;;;16.72;45.01
61488;BME280;47351;53.326;-6.298;2023-04-02T15:40:00;102655.23;;;16.48;45.71
61488;BME280;47351;53.326;-6.298;2023-04-02T15:42:53;102652.65;;;16.25;45.75
61488;BME280;47351;53.326;-6.298;2023-04-02T15:45:49;102650.55;;;16.05;46.33
61488;BME280;47351;53.326;-6.298;2023-04-02T15:52:00;102648.79;;;15.71;46.84
61488;BME280;47351;53.326;-6.298;2023-04-02T15:55:08;102643.98;;;15.57;47.11
61488;BME280;47351;53.326;-6.298;2023-04-02T15:58:16;102646.31;;;15.43;47.10
61488;BME280;47351;53.326;-6.298;2023-04-02T16:01:16;102647.36;;;15.20;47.04
61488;BME280;47351;53.326;-6.298;2023-04-02T16:07:21;102646.16;;;15.00;47.92